Time;durP1;ratioP1;P1;durP2;ratioP2;P2;SDS_P1;SDS_P2;PMS_P1;PMS_P2;Temp;Humidity;BMP_temperature;BMP_pressure;BME280_temperature;BME280_humidity;BME280_pressure;Samples;Min_cycle;Max_cycle;Signal;HPM_P1;HPM_P2
2022/01/05 00:01:46;;;;;;;1.23;0.88;;;3.80;99.90;;;;;;5045942;28;20222;-72
2022/01/05 00:04:12;;;;;;;1.30;1.20;;;3.80;99.90;;;;;;5044058;28;20206;-71
2022/01/05 00:06:39;;;;;;;3.90;1.13;;;3.60;99.90;;;;;;5052307;28;20210;-71
2022/01/05 00:09:06;;;;;;;1.15;1.15;;;3.50;99.90;;;;;;5032997;28;20229;-72
2022/01/05 00:11:32;;;;;;;1.35;0.82;;;3.40;99.90;;;;;;5041677;28;20233;-71
2022/01/05 00:13:59;;;;;;;1.30;1.20;;;3.30;99.90;;;;;;5047296;28;20230;-71
2022/01/05 00:16:25;;;;;;;0.95;0.90;;;3.30;99.90;;;;;;5034568;28;20222;-71
2022/01/05 00:18:54;;;;;;;2.03;1.75;;;3.40;99.90;;;;;;5046584;28;20256;-71
2022/01/05 00:21:20;;;;;;;7.60;1.40;;;3.30;99.90;;;;;;5051763;28;20236;-71
2022/01/05 00:23:47;;;;;;;2.38;1.38;;;3.30;99.90;;;;;;5049250;28;20191;-72
2022/01/05 00:26:14;;;;;;;1.23;1.05;;;3.30;99.90;;;;;;5047083;28;20718;-71
2022/01/05 00:28:40;;;;;;;1.52;1.40;;;3.20;99.90;;;;;;5034578;28;22107;-71
2022/01/05 00:31:07;;;;;;;0.73;0.70;;;3.10;99.90;;;;;;5048495;28;20217;-71
2022/01/05 00:33:34;;;;;;;1.80;1.33;;;3.10;99.90;;;;;;5049985;28;20229;-71
2022/01/05 00:36:02;;;;;;;0.77;0.77;;;3.10;99.90;;;;;;5036057;28;20205;-72
2022/01/05 00:38:28;;;;;;;0.88;0.88;;;3.00;99.90;;;;;;5047800;28;20621;-71
2022/01/05 00:40:55;;;;;;;4.43;1.00;;;3.10;99.90;;;;;;5046134;28;20230;-72
2022/01/05 00:43:22;;;;;;;0.60;0.60;;;3.00;99.90;;;;;;5032243;28;20652;-72
2022/01/05 00:45:48;;;;;;;5.00;0.88;;;3.00;99.90;;;;;;5032210;28;20556;-72
2022/01/05 00:48:15;;;;;;;3.00;1.23;;;3.00;99.90;;;;;;5042801;28;20707;-73
2022/01/05 00:50:42;;;;;;;2.13;1.88;;;3.10;99.90;;;;;;5021009;28;20230;-72
2022/01/05 00:53:10;;;;;;;1.15;1.13;;;3.00;99.90;;;;;;5030889;28;20221;-72
2022/01/05 00:55:37;;;;;;;1.13;1.00;;;3.00;99.90;;;;;;5031438;28;20202;-72
2022/01/05 00:58:04;;;;;;;1.88;1.42;;;2.90;99.90;;;;;;5037806;28;20233;-72
2022/01/05 01:00:31;;;;;;;0.68;0.68;;;2.80;99.90;;;;;;5034456;28;20195;-72
2022/01/05 01:02:57;;;;;;;2.25;0.88;;;2.70;99.90;;;;;;5031414;28;20284;-72
2022/01/05 01:05:24;;;;;;;1.70;1.60;;;2.60;99.90;;;;;;5042362;28;20642;-72
2022/01/05 01:07:51;;;;;;;0.98;0.60;;;2.60;99.90;;;;;;5033038;28;20253;-72
2022/01/05 01:10:19;;;;;;;0.50;0.45;;;2.50;99.90;;;;;;5030217;28;20214;-71
2022/01/05 01:12:45;;;;;;;1.13;0.75;;;2.50;99.90;;;;;;5038833;28;20210;-72
2022/01/05 01:15:13;;;;;;;0.93;0.93;;;2.50;99.90;;;;;;5034368;28;20790;-72
2022/01/05 01:17:40;;;;;;;0.93;0.93;;;2.40;99.90;;;;;;5030516;28;20209;-72
2022/01/05 01:20:07;;;;;;;3.60;1.13;;;2.40;99.90;;;;;;5029933;28;20285;-72
2022/01/05 01:22:35;;;;;;;1.00;1.00;;;2.40;99.90;;;;;;5031239;28;20230;-72
2022/01/05 01:25:02;;;;;;;0.70;0.70;;;2.40;99.90;;;;;;5030358;28;20243;-72
2022/01/05 01:27:30;;;;;;;2.45;1.73;;;2.40;99.90;;;;;;5030580;28;20211;-73
2022/01/05 01:29:57;;;;;;;1.20;1.10;;;2.40;99.90;;;;;;5030046;28;20206;-72
2022/01/05 01:32:24;;;;;;;4.10;2.33;;;2.40;99.90;;;;;;5030243;28;20237;-72
2022/01/05 01:34:51;;;;;;;1.30;1.30;;;2.40;99.90;;;;;;5030227;28;20226;-71
2022/01/05 01:37:17;;;;;;;2.58;1.75;;;2.40;99.90;;;;;;5030255;28;20215;-73
2022/01/05 01:39:44;;;;;;;1.35;1.25;;;2.40;99.90;;;;;;5029634;28;20202;-73
2022/01/05 01:42:11;;;;;;;1.55;1.45;;;2.40;99.90;;;;;;5029887;28;20712;-71
2022/01/05 01:44:39;;;;;;;1.90;1.77;;;2.40;99.90;;;;;;5029909;28;20649;-72
2022/01/05 01:47:06;;;;;;;1.77;1.67;;;2.40;99.90;;;;;;5030188;28;20203;-73
2022/01/05 01:49:33;;;;;;;2.80;1.40;;;2.50;99.90;;;;;;5029083;28;20268;-72
2022/01/05 01:52:00;;;;;;;5.65;1.77;;;2.50;99.90;;;;;;5029993;28;20284;-73
2022/01/05 01:54:28;;;;;;;1.35;1.15;;;2.60;99.90;;;;;;5029514;28;20287;-73
2022/01/05 01:56:55;;;;;;;1.80;1.70;;;2.50;99.90;;;;;;5043445;28;20209;-73
2022/01/05 01:59:22;;;;;;;1.35;1.25;;;2.50;99.90;;;;;;5029057;28;20253;-71
2022/01/05 02:01:50;;;;;;;1.58;1.30;;;2.50;99.90;;;;;;5033118;28;20218;-71
2022/01/05 02:04:17;;;;;;;5.78;1.13;;;2.50;99.90;;;;;;5029997;28;20211;-73
2022/01/05 02:06:43;;;;;;;1.92;1.73;;;2.60;99.90;;;;;;5030216;28;20207;-73
2022/01/05 02:09:10;;;;;;;2.28;1.83;;;2.50;99.90;;;;;;5029725;28;20615;-73
2022/01/05 02:11:39;;;;;;;3.97;2.13;;;2.50;99.90;;;;;;5036085;28;20234;-72
2022/01/05 02:14:06;;;;;;;1.70;1.35;;;2.50;99.90;;;;;;5029672;28;20222;-71
2022/01/05 02:16:35;;;;;;;2.22;2.03;;;2.50;99.90;;;;;;5029710;28;20210;-71
2022/01/05 02:19:03;;;;;;;1.30;1.17;;;2.50;99.90;;;;;;5028414;28;20203;-71
2022/01/05 02:21:32;;;;;;;3.30;2.05;;;2.50;99.90;;;;;;5029349;28;20226;-72
2022/01/05 02:23:59;;;;;;;4.03;2.47;;;2.50;99.90;;;;;;5029699;28;20257;-73
2022/01/05 02:26:27;;;;;;;2.03;1.92;;;2.50;99.90;;;;;;5028686;28;20199;-71
2022/01/05 02:28:53;;;;;;;2.65;1.42;;;2.40;99.90;;;;;;5029151;28;20207;-71
2022/01/05 02:31:20;;;;;;;1.73;1.27;;;2.40;99.90;;;;;;5029194;28;20222;-71
2022/01/05 02:33:47;;;;;;;1.65;1.55;;;2.40;99.90;;;;;;5029500;28;20210;-73
2022/01/05 02:36:18;;;;;;;5.60;2.15;;;2.40;99.90;;;;;;5029451;28;20570;-73
2022/01/05 02:38:47;;;;;;;2.03;1.92;;;2.40;99.90;;;;;;5028665;28;20195;-71
2022/01/05 02:41:14;;;;;;;2.15;2.05;;;2.30;99.90;;;;;;5028862;28;20300;-71
2022/01/05 02:43:43;;;;;;;3.28;2.83;;;2.30;99.90;;;;;;5029242;28;20214;-71
2022/01/05 02:46:11;;;;;;;3.08;2.80;;;2.30;99.90;;;;;;5029272;28;20195;-71
2022/01/05 02:48:39;;;;;;;3.08;2.80;;;2.30;99.90;;;;;;5029117;28;20206;-71
2022/01/05 02:51:06;;;;;;;4.20;3.15;;;2.40;99.90;;;;;;5057176;22;20234;-73
2022/01/05 02:53:33;;;;;;;3.25;2.97;;;2.30;99.90;;;;;;5017471;28;20645;-73
2022/01/05 02:56:01;;;;;;;2.80;2.60;;;2.30;99.90;;;;;;5012245;28;20368;-72
2022/01/05 02:58:28;;;;;;;3.10;2.88;;;2.30;99.90;;;;;;5011859;28;20260;-70
2022/01/05 03:00:55;;;;;;;3.95;3.60;;;2.30;99.90;;;;;;5025362;28;20206;-73
2022/01/05 03:03:21;;;;;;;3.13;2.83;;;2.30;99.90;;;;;;5011028;28;20673;-73
2022/01/05 03:05:48;;;;;;;3.65;2.58;;;2.30;99.90;;;;;;5006326;28;20670;-73
2022/01/05 03:08:15;;;;;;;2.45;2.35;;;2.30;99.90;;;;;;5023478;28;20214;-72
2022/01/05 03:10:42;;;;;;;2.47;2.25;;;2.20;99.90;;;;;;5019947;28;20650;-72
2022/01/05 03:13:10;;;;;;;1.67;1.60;;;2.20;99.90;;;;;;5016807;28;20261;-71
2022/01/05 03:15:37;;;;;;;1.27;1.20;;;2.20;99.90;;;;;;5015177;28;20293;-72
2022/01/05 03:18:03;;;;;;;3.88;3.58;;;2.10;99.90;;;;;;5024346;28;20256;-71
2022/01/05 03:20:31;;;;;;;3.30;2.08;;;2.20;99.90;;;;;;5023963;28;20298;-71
2022/01/05 03:22:58;;;;;;;3.03;2.72;;;2.20;99.90;;;;;;5023633;28;20589;-71
2022/01/05 03:25:25;;;;;;;1.95;1.85;;;2.10;99.90;;;;;;5026459;28;20202;-72
2022/01/05 03:27:54;;;;;;;4.35;1.80;;;2.10;99.90;;;;;;5024339;28;20352;-71
2022/01/05 03:30:23;;;;;;;6.20;2.20;;;2.10;99.90;;;;;;5014537;28;20281;-72
2022/01/05 03:33:08;;;;;;;4.05;2.13;;;2.10;99.90;;;;;;5024025;28;20253;-72
2022/01/05 03:35:37;;;;;;;3.47;3.17;;;2.10;99.90;;;;;;5026075;28;20230;-71
2022/01/05 03:38:05;;;;;;;2.85;1.50;;;2.10;99.90;;;;;;5024710;28;20203;-72
2022/01/05 03:40:34;;;;;;;16.92;2.80;;;2.00;99.90;;;;;;5025160;28;20224;-75
2022/01/05 03:43:01;;;;;;;1.25;1.13;;;2.00;99.90;;;;;;5020919;28;20667;-73
2022/01/05 03:45:30;;;;;;;3.42;2.00;;;2.00;99.90;;;;;;5017737;28;21699;-71
2022/01/05 03:47:56;;;;;;;2.97;1.88;;;2.00;99.90;;;;;;5025577;28;20206;-74
2022/01/05 03:50:23;;;;;;;4.82;2.15;;;1.90;99.90;;;;;;5029320;28;20221;-72
2022/01/05 03:52:50;;;;;;;4.50;1.92;;;2.00;99.90;;;;;;5028567;28;20730;-71
2022/01/05 03:55:16;;;;;;;2.75;2.55;;;2.00;99.90;;;;;;5028100;28;20634;-71
2022/01/05 03:57:43;;;;;;;6.38;2.35;;;2.10;99.90;;;;;;5032825;28;20712;-72
2022/01/05 04:00:11;;;;;;;1.20;1.10;;;2.00;99.90;;;;;;5029700;28;20276;-71
2022/01/05 04:02:39;;;;;;;4.28;3.05;;;2.00;99.90;;;;;;5031923;28;20231;-73
2022/01/05 04:05:07;;;;;;;2.97;2.78;;;2.00;99.90;;;;;;5028168;28;20202;-71
2022/01/05 04:07:33;;;;;;;2.42;1.88;;;2.00;99.90;;;;;;5024211;28;20282;-71
2022/01/05 04:10:00;;;;;;;1.95;1.85;;;1.90;99.90;;;;;;5012597;28;20203;-72
2022/01/05 04:12:26;;;;;;;2.70;2.50;;;1.90;99.90;;;;;;5024350;28;20399;-71
2022/01/05 04:14:53;;;;;;;2.10;2.00;;;1.80;99.90;;;;;;5025572;28;20561;-71
2022/01/05 04:17:21;;;;;;;2.55;2.35;;;1.90;99.90;;;;;;5024890;28;20226;-72
2022/01/05 04:19:49;;;;;;;16.85;2.63;;;1.90;99.90;;;;;;5027922;28;20297;-72
2022/01/05 04:22:16;;;;;;;2.13;1.48;;;1.90;99.90;;;;;;5028472;28;20276;-71
2022/01/05 04:24:42;;;;;;;2.72;2.20;;;1.80;99.90;;;;;;5031765;28;20236;-72
2022/01/05 04:27:09;;;;;;;2.10;1.38;;;1.80;99.90;;;;;;5027597;28;20245;-71
2022/01/05 04:29:35;;;;;;;2.05;1.85;;;1.70;99.90;;;;;;5031333;28;20530;-71
2022/01/05 04:32:02;;;;;;;2.88;1.88;;;1.80;99.90;;;;;;5025445;28;20291;-71
2022/01/05 04:34:29;;;;;;;1.60;1.50;;;1.80;99.90;;;;;;5028528;28;20218;-72
2022/01/05 04:36:57;;;;;;;3.95;1.85;;;1.80;99.90;;;;;;5023977;28;20540;-72
2022/01/05 04:39:23;;;;;;;6.25;3.50;;;1.80;99.90;;;;;;5020916;28;20758;-72
2022/01/05 04:41:50;;;;;;;2.00;1.77;;;1.80;99.90;;;;;;5016710;28;20230;-72
2022/01/05 04:44:17;;;;;;;2.53;2.33;;;1.80;99.90;;;;;;5021715;28;20269;-71
2022/01/05 04:46:44;;;;;;;3.15;1.42;;;1.90;99.90;;;;;;5027450;28;20260;-72
2022/01/05 04:49:10;;;;;;;1.67;1.30;;;1.90;99.90;;;;;;5027776;28;20722;-72
2022/01/05 04:51:37;;;;;;;1.38;1.27;;;1.90;99.90;;;;;;5013933;28;20291;-72
2022/01/05 04:54:05;;;;;;;22.13;1.50;;;1.90;99.90;;;;;;5014179;28;20779;-72
2022/01/05 04:56:32;;;;;;;1.88;1.20;;;1.90;99.90;;;;;;5027123;28;20230;-71
2022/01/05 04:58:59;;;;;;;1.40;1.30;;;1.80;99.90;;;;;;5026879;28;20261;-71
2022/01/05 05:01:25;;;;;;;2.28;1.80;;;1.90;99.90;;;;;;5015807;28;20736;-72
2022/01/05 05:03:52;;;;;;;1.48;1.38;;;1.80;99.90;;;;;;5026916;28;20305;-71
2022/01/05 05:06:19;;;;;;;1.98;1.85;;;1.80;99.90;;;;;;5012142;28;20203;-71
2022/01/05 05:08:46;;;;;;;3.50;1.73;;;1.70;99.90;;;;;;5012664;28;20218;-71
2022/01/05 05:11:14;;;;;;;1.08;1.08;;;1.70;99.90;;;;;;5026698;28;20255;-71
2022/01/05 05:13:40;;;;;;;0.77;0.75;;;1.80;99.90;;;;;;5028029;28;20203;-72
2022/01/05 05:16:07;;;;;;;1.92;0.95;;;1.70;99.90;;;;;;5027367;28;20230;-71
2022/01/05 05:18:34;;;;;;;2.55;1.88;;;1.70;99.90;;;;;;5019496;28;20199;-71
2022/01/05 05:21:01;;;;;;;2.90;2.65;;;1.70;99.90;;;;;;5022001;28;20211;-72
2022/01/05 05:23:28;;;;;;;2.97;1.10;;;1.70;99.90;;;;;;5024005;28;20211;-73
2022/01/05 05:25:55;;;;;;;2.92;2.63;;;1.70;99.90;;;;;;5022480;28;20280;-72
2022/01/05 05:28:23;;;;;;;0.77;0.77;;;1.70;99.90;;;;;;5020368;28;20238;-72
2022/01/05 05:30:49;;;;;;;0.95;0.85;;;1.70;99.90;;;;;;5023461;28;20683;-71
2022/01/05 05:33:16;;;;;;;3.22;1.75;;;1.60;99.90;;;;;;5027644;28;20226;-72
2022/01/05 05:35:43;;;;;;;1.55;1.45;;;1.60;99.90;;;;;;5027722;28;20234;-72
2022/01/05 05:38:11;;;;;;;4.93;2.45;;;1.60;99.90;;;;;;5025185;28;20198;-72
2022/01/05 05:40:38;;;;;;;3.50;1.65;;;1.50;99.90;;;;;;5026320;28;20234;-71
2022/01/05 05:43:05;;;;;;;1.80;1.40;;;1.50;99.90;;;;;;5027000;28;20234;-71
2022/01/05 05:45:33;;;;;;;12.57;2.00;;;1.50;99.90;;;;;;5014505;28;20203;-71
2022/01/05 05:47:59;;;;;;;1.25;1.25;;;1.60;99.90;;;;;;5026812;28;20310;-71
2022/01/05 05:50:27;;;;;;;2.03;1.35;;;1.60;99.90;;;;;;5026834;28;20207;-72
2022/01/05 05:52:53;;;;;;;1.50;1.40;;;1.60;99.90;;;;;;5027292;28;20231;-71
2022/01/05 05:55:20;;;;;;;5.47;1.65;;;1.60;99.90;;;;;;5026770;28;20231;-71
2022/01/05 05:57:47;;;;;;;0.70;0.70;;;1.60;99.90;;;;;;5027220;28;20207;-72
2022/01/05 06:00:14;;;;;;;1.65;1.55;;;1.70;99.90;;;;;;5025917;28;20210;-72
2022/01/05 06:02:42;;;;;;;1.20;0.88;;;1.60;99.90;;;;;;5031012;28;20300;-72
2022/01/05 06:05:09;;;;;;;3.22;1.67;;;1.70;99.90;;;;;;5027482;28;20280;-72
2022/01/05 06:07:36;;;;;;;3.17;1.33;;;1.60;99.90;;;;;;5026955;28;20289;-71
2022/01/05 06:10:03;;;;;;;4.75;1.50;;;1.60;99.90;;;;;;5023740;28;20360;-73
2022/01/05 06:12:30;;;;;;;0.77;0.50;;;1.60;99.90;;;;;;5027194;28;20234;-72
2022/01/05 06:14:57;;;;;;;0.73;0.73;;;1.50;99.90;;;;;;5027205;28;20759;-73
2022/01/05 06:17:24;;;;;;;1.38;1.30;;;1.50;99.90;;;;;;5026216;28;20632;-72
2022/01/05 06:19:52;;;;;;;0.82;0.82;;;1.50;99.90;;;;;;5026145;28;20215;-75
2022/01/05 06:22:18;;;;;;;1.70;1.60;;;1.60;99.90;;;;;;5027226;28;20245;-71
2022/01/05 06:24:45;;;;;;;0.85;0.85;;;1.60;99.90;;;;;;5020566;28;20213;-73
2022/01/05 06:27:12;;;;;;;0.93;0.93;;;1.70;99.90;;;;;;5030468;28;20241;-72
2022/01/05 06:29:39;;;;;;;1.10;1.02;;;1.80;99.90;;;;;;5033203;28;20649;-71
2022/01/05 06:32:07;;;;;;;1.35;1.15;;;1.90;99.90;;;;;;5026912;28;20740;-71
2022/01/05 06:34:34;;;;;;;1.10;1.00;;;2.00;99.90;;;;;;5028787;28;20203;-71
2022/01/05 06:37:02;;;;;;;6.60;1.63;;;2.00;99.90;;;;;;5026627;28;20299;-71
2022/01/05 06:39:29;;;;;;;1.73;0.80;;;2.10;99.90;;;;;;5027527;28;20218;-71
2022/01/05 06:41:55;;;;;;;1.25;1.10;;;2.10;99.90;;;;;;5027230;28;20282;-73
2022/01/05 06:44:22;;;;;;;1.55;1.20;;;2.10;99.90;;;;;;5020476;28;20348;-72
2022/01/05 06:46:49;;;;;;;7.43;1.55;;;2.10;99.90;;;;;;5024824;28;20194;-73
2022/01/05 06:49:15;;;;;;;2.65;1.20;;;2.10;99.90;;;;;;5016143;28;20278;-72
2022/01/05 06:51:42;;;;;;;1.30;1.02;;;2.20;99.90;;;;;;5025056;28;20337;-72
2022/01/05 06:54:10;;;;;;;1.42;1.33;;;2.20;99.90;;;;;;5025870;28;20206;-76
2022/01/05 06:56:37;;;;;;;8.48;1.25;;;2.30;99.90;;;;;;5029347;28;20280;-71
2022/01/05 06:59:03;;;;;;;2.35;2.15;;;2.30;99.90;;;;;;5028572;28;20221;-71
2022/01/05 07:01:30;;;;;;;1.75;1.05;;;2.40;99.90;;;;;;5026106;28;20218;-73
2022/01/05 07:03:57;;;;;;;0.85;0.85;;;2.40;99.90;;;;;;5027095;28;20229;-72
2022/01/05 07:06:23;;;;;;;2.67;1.08;;;2.40;99.90;;;;;;5028943;28;20272;-71
2022/01/05 07:08:50;;;;;;;1.88;1.25;;;2.50;99.90;;;;;;5010515;28;20223;-69
2022/01/05 07:11:18;;;;;;;1.60;1.42;;;2.50;99.90;;;;;;5020683;28;20284;-69
2022/01/05 07:13:45;;;;;;;1.05;0.70;;;2.60;99.90;;;;;;5021980;28;20699;-74
2022/01/05 07:16:11;;;;;;;1.90;1.52;;;2.60;99.90;;;;;;5025562;28;20253;-71
2022/01/05 07:18:38;;;;;;;2.97;1.20;;;2.60;99.90;;;;;;5024020;28;20285;-71
2022/01/05 07:21:04;;;;;;;1.58;0.85;;;2.60;99.90;;;;;;5024634;28;20273;-71
2022/01/05 07:23:32;;;;;;;4.95;1.50;;;2.60;99.90;;;;;;5022114;28;20199;-71
2022/01/05 07:25:58;;;;;;;5.03;3.03;;;2.60;99.90;;;;;;5024719;28;20214;-72
2022/01/05 07:28:26;;;;;;;4.53;2.25;;;2.60;99.90;;;;;;5024348;28;20265;-70
2022/01/05 07:30:53;;;;;;;6.82;1.25;;;2.60;99.90;;;;;;5024373;28;20237;-70
2022/01/05 07:33:19;;;;;;;1.00;0.85;;;2.60;99.90;;;;;;5025230;28;20230;-72
2022/01/05 07:35:46;;;;;;;0.60;0.55;;;2.60;99.90;;;;;;5026724;28;20321;-72
2022/01/05 07:38:13;;;;;;;4.28;1.25;;;2.70;99.90;;;;;;5026876;28;20272;-71
2022/01/05 07:40:39;;;;;;;2.95;0.60;;;2.70;99.90;;;;;;5030873;28;20207;-72
2022/01/05 07:43:06;;;;;;;1.77;1.38;;;2.70;99.90;;;;;;5028613;28;20692;-71
2022/01/05 07:45:36;;;;;;;4.05;1.90;;;2.70;99.90;;;;;;5026023;28;20203;-75
2022/01/05 07:48:02;;;;;;;1.80;0.82;;;2.80;99.90;;;;;;5030269;28;20313;-72
2022/01/05 07:50:29;;;;;;;5.60;1.50;;;2.80;99.90;;;;;;5032566;28;20214;-76
2022/01/05 07:52:56;;;;;;;0.75;0.75;;;2.80;99.90;;;;;;5022526;28;20234;-75
2022/01/05 07:55:23;;;;;;;15.68;2.28;;;2.80;99.90;;;;;;5034917;28;20207;-72
2022/01/05 07:57:50;;;;;;;3.05;2.70;;;2.80;99.90;;;;;;5019633;28;20245;-74
2022/01/05 08:00:17;;;;;;;2.15;2.03;;;2.80;99.90;;;;;;5035455;28;20213;-75
2022/01/05 08:02:45;;;;;;;1.65;1.20;;;2.80;99.90;;;;;;5037250;28;20276;-72
2022/01/05 08:05:11;;;;;;;1.70;1.02;;;2.90;99.90;;;;;;5026812;28;20199;-73
2022/01/05 08:07:38;;;;;;;5.60;1.77;;;3.20;99.90;;;;;;5023658;28;20194;-72
2022/01/05 08:10:05;;;;;;;1.27;1.17;;;3.20;99.90;;;;;;5020164;28;20218;-73
2022/01/05 08:12:32;;;;;;;2.30;1.80;;;3.20;99.90;;;;;;5022502;28;20222;-74
2022/01/05 08:14:59;;;;;;;5.07;1.25;;;3.20;99.90;;;;;;5015336;28;20287;-70
2022/01/05 08:17:25;;;;;;;4.45;1.63;;;3.20;99.90;;;;;;5027419;28;20246;-72
2022/01/05 08:19:53;;;;;;;3.20;1.48;;;3.20;99.90;;;;;;5026355;28;20273;-72
2022/01/05 08:22:20;;;;;;;3.53;1.52;;;3.20;99.90;;;;;;5028256;28;20227;-72
2022/01/05 08:24:47;;;;;;;1.33;1.23;;;3.20;99.90;;;;;;5028308;28;20286;-71
2022/01/05 08:27:13;;;;;;;1.30;1.20;;;3.30;99.90;;;;;;5016330;28;20273;-71
2022/01/05 08:29:40;;;;;;;2.08;1.60;;;3.30;99.90;;;;;;5021819;28;20250;-72
2022/01/05 08:32:07;;;;;;;6.53;1.92;;;3.40;99.90;;;;;;5027323;28;20280;-73
2022/01/05 08:34:34;;;;;;;9.80;1.73;;;3.40;99.90;;;;;;5032064;28;20237;-71
2022/01/05 08:37:02;;;;;;;2.13;0.80;;;3.40;99.90;;;;;;5033235;28;20308;-71
2022/01/05 08:39:29;;;;;;;0.98;0.88;;;3.50;99.90;;;;;;5032222;28;20295;-70
2022/01/05 08:41:56;;;;;;;1.98;1.52;;;3.50;99.90;;;;;;5032346;28;20218;-72
2022/01/05 08:44:22;;;;;;;3.30;1.27;;;3.60;99.90;;;;;;5020248;28;20707;-72
2022/01/05 08:46:49;;;;;;;1.63;1.52;;;3.60;99.90;;;;;;5030415;28;20225;-73
2022/01/05 08:49:16;;;;;;;3.80;2.10;;;3.50;99.90;;;;;;5034447;28;20237;-72
2022/01/05 08:51:43;;;;;;;2.35;1.50;;;3.60;99.90;;;;;;5033142;28;20234;-72
2022/01/05 08:54:12;;;;;;;2.92;1.58;;;3.60;99.90;;;;;;5069715;22;20321;-74
2022/01/05 08:56:39;;;;;;;4.65;1.73;;;3.60;99.90;;;;;;5044925;28;20276;-76
2022/01/05 08:59:05;;;;;;;0.90;0.90;;;3.70;99.90;;;;;;5046779;28;20233;-75
2022/01/05 09:01:32;;;;;;;1.60;1.30;;;3.70;99.90;;;;;;5049623;28;20233;-76
2022/01/05 09:03:58;;;;;;;1.77;1.67;;;3.70;99.90;;;;;;5049591;28;20223;-76
2022/01/05 09:06:25;;;;;;;2.85;1.35;;;3.80;99.90;;;;;;5042798;28;20209;-74
2022/01/05 09:08:52;;;;;;;1.48;1.40;;;3.80;99.90;;;;;;5045081;28;20864;-75
2022/01/05 09:11:20;;;;;;;1.90;1.80;;;3.80;99.90;;;;;;5050154;28;20206;-74
2022/01/05 09:13:47;;;;;;;2.85;1.88;;;3.80;99.90;;;;;;5047091;28;20225;-74
2022/01/05 09:16:13;;;;;;;1.35;1.25;;;3.80;99.90;;;;;;5040161;28;20322;-76
2022/01/05 09:18:40;;;;;;;1.23;0.82;;;3.90;99.90;;;;;;5036546;28;20243;-75
2022/01/05 09:21:07;;;;;;;4.10;1.13;;;3.90;99.90;;;;;;5048224;28;20197;-74
2022/01/05 09:23:33;;;;;;;1.67;1.58;;;3.90;99.90;;;;;;5039999;28;20225;-75
2022/01/05 09:26:00;;;;;;;0.55;0.55;;;3.80;99.90;;;;;;5039481;28;20673;-75
2022/01/05 09:28:28;;;;;;;1.67;1.58;;;3.80;99.90;;;;;;5048156;28;20321;-75
2022/01/05 09:30:55;;;;;;;5.88;1.60;;;3.90;99.90;;;;;;5057607;28;20243;-75
2022/01/05 09:33:23;;;;;;;4.03;1.40;;;3.90;99.90;;;;;;5051182;28;20217;-75
2022/01/05 09:36:00;;;;;;;2.15;1.17;;;3.90;99.90;;;;;;5050948;28;20198;-76
2022/01/05 09:41:56;;;;;;;2.35;0.95;;;4.00;99.90;;;;;;5045020;28;20201;-75
2022/01/05 09:44:09;;;;;;;1.35;1.25;;;4.10;99.90;;;;;;5055881;28;20285;-75
2022/01/05 09:46:45;;;;;;;1.10;1.10;;;4.10;99.90;;;;;;5057649;28;20216;-73
2022/01/05 10:01:19;;;;;;;3.60;1.33;;;4.70;99.90;;;;;;5107301;27;21069;-75
2022/01/05 10:03:45;;;;;;;6.13;2.67;;;4.70;99.90;;;;;;5103441;28;20277;-73
2022/01/05 10:06:13;;;;;;;1.30;1.20;;;4.80;99.90;;;;;;5097484;28;20209;-73
2022/01/05 10:08:39;;;;;;;7.60;1.67;;;4.90;99.90;;;;;;5092269;28;20216;-73
2022/01/05 10:11:09;;;;;;;2.30;1.08;;;4.80;99.90;;;;;;5106312;28;20249;-73
2022/01/05 10:13:36;;;;;;;1.60;1.40;;;4.80;99.90;;;;;;5106835;28;20292;-73
2022/01/05 10:16:03;;;;;;;5.95;1.70;;;4.70;99.90;;;;;;5095823;28;20246;-72
2022/01/05 10:18:39;;;;;;;1.58;1.48;;;4.70;99.90;;;;;;5106141;28;20204;-72
2022/01/05 10:21:06;;;;;;;2.30;1.80;;;4.80;99.90;;;;;;5098200;28;20224;-71
2022/01/05 10:23:38;;;;;;;2.00;0.93;;;4.80;99.90;;;;;;5098787;28;20772;-71
2022/01/05 10:26:25;;;;;;;3.25;1.02;;;4.90;99.90;;;;;;5105100;28;20204;-72
2022/01/05 10:28:53;;;;;;;3.03;0.93;;;5.00;99.90;;;;;;5104473;28;20595;-72
2022/01/05 10:31:21;;;;;;;2.60;0.98;;;5.10;99.90;;;;;;5102599;28;20245;-73
2022/01/05 10:33:50;;;;;;;2.78;1.75;;;5.20;99.90;;;;;;5105613;28;20643;-72
2022/01/05 10:36:16;;;;;;;3.33;1.90;;;5.20;99.90;;;;;;5098168;28;20200;-71
2022/01/05 10:38:54;;;;;;;1.48;1.25;;;5.10;99.90;;;;;;5093924;28;20200;-72
2022/01/05 10:41:23;;;;;;;1.52;1.42;;;5.10;99.90;;;;;;5099129;28;20223;-72
2022/01/05 10:44:20;;;;;;;1.75;1.60;;;5.10;99.90;;;;;;5102602;28;20212;-72
2022/01/05 10:46:50;;;;;;;1.98;1.42;;;5.00;99.90;;;;;;4987793;28;20236;-73
2022/01/05 10:49:27;;;;;;;1.10;1.00;;;5.00;99.90;;;;;;5071897;28;20204;-73
2022/01/05 10:51:53;;;;;;;5.75;2.45;;;5.00;99.90;;;;;;5100180;28;20268;-73
2022/01/05 10:54:22;;;;;;;2.55;1.27;;;5.00;99.90;;;;;;5102307;28;20232;-72
2022/01/05 10:56:50;;;;;;;1.63;1.05;;;4.90;99.90;;;;;;5104124;28;20204;-73
2022/01/05 10:59:28;;;;;;;1.95;1.15;;;4.80;99.90;;;;;;5104476;28;20277;-72
2022/01/05 11:01:55;;;;;;;2.72;0.98;;;4.70;99.90;;;;;;5092007;28;20204;-75
2022/01/05 11:04:24;;;;;;;5.07;3.05;;;4.80;99.90;;;;;;5088121;28;20305;-74
2022/01/05 11:06:58;;;;;;;3.10;1.60;;;4.90;99.90;;;;;;5104632;28;20204;-73
2022/01/05 11:09:25;;;;;;;4.65;1.30;;;5.00;99.90;;;;;;5105099;28;20218;-74
2022/01/05 11:11:53;;;;;;;3.95;1.25;;;5.20;99.90;;;;;;5093298;28;20245;-73
2022/01/05 11:14:27;;;;;;;2.42;0.90;;;5.20;99.90;;;;;;5081765;28;20221;-73
2022/01/05 11:16:54;;;;;;;2.67;1.65;;;5.40;99.90;;;;;;5076407;28;20220;-73
2022/01/05 11:19:22;;;;;;;1.58;1.48;;;5.40;99.90;;;;;;5091851;28;20201;-74
2022/01/05 11:22:00;;;;;;;2.05;1.95;;;5.40;99.90;;;;;;5083852;28;20236;-74
2022/01/05 11:24:29;;;;;;;1.83;0.90;;;5.40;99.90;;;;;;5080336;28;20568;-73
2022/01/05 11:26:56;;;;;;;8.00;2.15;;;5.50;99.90;;;;;;5100755;28;20705;-70
2022/01/05 11:40:30;;;;;;;3.50;1.35;;;5.60;99.90;;;;;;5099890;27;20646;-74
2022/01/05 11:43:01;;;;;;;1.88;1.67;;;5.70;99.90;;;;;;5078945;28;20220;-74
2022/01/05 11:45:31;;;;;;;4.47;1.92;;;5.70;99.90;;;;;;5082688;28;20294;-75
2022/01/05 11:48:13;;;;;;;1.90;1.63;;;5.50;99.90;;;;;;5085730;28;20208;-73
2022/01/05 11:50:44;;;;;;;5.13;2.38;;;5.40;99.90;;;;;;5094054;28;20200;-73
2022/01/05 11:53:11;;;;;;;2.47;2.28;;;5.40;99.90;;;;;;5092937;28;20585;-71
2022/01/05 11:56:07;;;;;;;17.65;2.83;;;5.40;99.90;;;;;;5087070;28;20265;-72
2022/01/05 11:58:35;;;;;;;3.22;2.85;;;5.30;99.90;;;;;;5085532;28;20701;-73
2022/01/05 12:01:25;;;;;;;3.38;1.92;;;5.30;99.90;;;;;;5080767;28;20623;-73
2022/01/05 12:04:14;;;;;;;2.80;1.30;;;5.50;99.90;;;;;;5094527;28;20216;-73
2022/01/05 12:07:02;;;;;;;2.95;1.50;;;5.60;99.90;;;;;;5081120;28;20204;-73
2022/01/05 12:09:30;;;;;;;5.25;1.42;;;5.70;99.90;;;;;;5084540;28;20239;-72
2022/01/05 12:12:02;;;;;;;3.35;1.83;;;5.70;99.90;;;;;;5085845;28;20208;-74
2022/01/05 12:14:47;;;;;;;6.20;2.20;;;5.60;99.90;;;;;;5086425;28;20224;-74
2022/01/05 12:17:17;;;;;;;12.60;2.20;;;5.60;99.90;;;;;;5097697;28;20232;-73
2022/01/05 12:20:12;;;;;;;3.58;1.05;;;5.60;99.90;;;;;;5083647;28;20216;-72
2022/01/05 12:22:39;;;;;;;2.97;1.40;;;5.50;99.90;;;;;;5065363;28;20227;-72
2022/01/05 12:25:12;;;;;;;3.50;2.17;;;5.40;99.90;;;;;;5081201;28;20210;-73
2022/01/05 12:27:54;;;;;;;3.50;1.30;;;5.30;99.90;;;;;;5086147;28;20201;-72
2022/01/05 12:30:48;;;;;;;3.22;1.45;;;5.30;99.90;;;;;;5084891;28;20288;-73
2022/01/05 12:33:18;;;;;;;1.42;1.33;;;5.30;99.90;;;;;;5050763;28;20274;-74
2022/01/05 12:35:51;;;;;;;1.75;1.58;;;5.30;99.90;;;;;;5084106;28;20641;-73
2022/01/05 12:38:41;;;;;;;5.00;1.67;;;5.50;99.90;;;;;;5085928;28;20326;-74
2022/01/05 12:41:28;;;;;;;1.15;1.05;;;5.60;99.90;;;;;;5082563;28;20621;-74
2022/01/05 12:43:58;;;;;;;1.75;1.15;;;5.80;99.90;;;;;;5089578;28;20239;-74
2022/01/05 12:46:37;;;;;;;5.82;1.45;;;5.90;99.90;;;;;;5085086;28;20201;-76
2022/01/05 12:49:09;;;;;;;7.15;1.50;;;5.90;99.90;;;;;;5087916;28;20193;-74
2022/01/05 12:52:00;;;;;;;3.15;1.45;;;5.80;99.90;;;;;;5069983;28;20204;-74
2022/01/05 12:54:28;;;;;;;2.10;1.50;;;5.80;99.90;;;;;;5073721;28;20223;-74
2022/01/05 12:56:58;;;;;;;2.60;2.40;;;5.90;99.90;;;;;;5072214;28;20216;-74
2022/01/05 12:59:31;;;;;;;6.57;1.45;;;5.80;99.90;;;;;;5073115;28;20776;-75
2022/01/05 13:02:01;;;;;;;3.33;2.05;;;5.80;99.90;;;;;;5067786;28;20572;-75
2022/01/05 13:04:29;;;;;;;7.28;1.60;;;5.60;99.90;;;;;;5071793;28;20290;-73
2022/01/05 13:06:58;;;;;;;4.00;1.45;;;5.60;99.90;;;;;;5069553;28;20205;-74
2022/01/05 13:09:29;;;;;;;5.50;2.00;;;5.60;99.90;;;;;;5071580;28;20201;-74
2022/01/05 13:11:59;;;;;;;2.55;2.35;;;5.60;99.90;;;;;;5062027;28;20213;-73
2022/01/05 13:14:30;;;;;;;1.80;0.90;;;5.60;99.90;;;;;;5065193;28;20222;-73
2022/01/05 13:16:59;;;;;;;3.75;2.75;;;5.60;99.90;;;;;;5071050;28;20205;-73
2022/01/05 13:19:41;;;;;;;2.20;1.75;;;5.50;99.90;;;;;;5063277;28;20225;-73
2022/01/05 13:22:11;;;;;;;2.60;2.08;;;5.50;99.90;;;;;;5071007;28;20299;-74
2022/01/05 13:24:52;;;;;;;1.92;1.80;;;5.40;99.90;;;;;;5067155;28;20204;-73
2022/01/05 13:27:20;;;;;;;1.40;1.30;;;5.50;99.90;;;;;;5071045;28;20262;-73
2022/01/05 13:29:49;;;;;;;2.00;1.33;;;5.50;99.90;;;;;;5069354;28;20201;-73
2022/01/05 13:32:18;;;;;;;3.28;1.67;;;5.40;99.90;;;;;;5068781;28;20205;-73